• Join FlightAware (Why Join?)
  • Login
  • US Flag 
01:02PM EST


 

Airport Tracker/Info


-or-


 

Live Flight TrackerFlight Track Log ✈ SKQ301 ✈ 21-May-2013 ✈ KBNA - KBHM

Flight Track Log - Related Links

Times and Time Zones

All times are in EDT time to prevent confusion due to time zone crossing. See the SKQ301 flight status page for this flight to view local times or setup timezone preferences in your user account.

Time Position Orientation Groundspeed Altitude Reporting Facility
EDT Latitude Longitude Course Direction KTS MPH feet Rate Location/Type
04:05AM 36.0667 -86.6833 180° South 97 112 2,500  Level Nashville TRACON
04:06AM 36.0500 -86.6833 180° South 94 108 3,500 900 Climbing Nashville TRACON
04:07AM 36.0167 -86.6833 180° South 107 123 4,400 900 Climbing Nashville TRACON
04:08AM 35.9833 -86.6833 180° South 113 130 5,400 900 Climbing Nashville TRACON
04:09AM 35.9500 -86.6833 180° South 116 133 6,300 960 Climbing Nashville TRACON
04:10AM 35.9167 -86.6833 180° South 117 135 7,400 840 Climbing Nashville TRACON
04:11AM 35.8171 -86.6833 180° South  Level FlightAware Approximate
04:11AM 35.8833 -86.6833 180° South 119 137 8,000  Level Nashville TRACON
04:12AM 35.8500 -86.6833 180° South 162 186 8,000  Level Nashville TRACON
04:13AM 35.7981 -86.6944 190° South 179 206 8,100  Climbing Memphis Center
04:14AM 35.7458 -86.6942 180° South 179 206 8,000 -60 Descending Memphis Center
04:15AM 35.6978 -86.6964 182° South 179 206 8,000  Level Memphis Center
04:16AM 35.6500 -86.6986 182° South 179 206 8,000  Level Memphis Center
04:17AM 35.6042 -86.6981 179° South 179 206 8,000  Level Memphis Center
04:18AM 35.5542 -86.7003 182° South 179 206 8,000  Level Memphis Center
04:19AM 35.5061 -86.7022 182° South 179 206 8,000  Level Memphis Center
04:20AM 35.4603 -86.7044 182° South 179 206 8,000  Level Memphis Center
04:21AM 35.4103 -86.7039 179° South 179 206 8,000  Level Memphis Center
04:22AM 35.3625 -86.7061 182° South 174 200 8,100  Climbing Memphis Center
04:23AM 35.3144 -86.7083 182° South 179 206 8,100  Level Memphis Center
04:24AM 35.2706 -86.7075 179° South 179 206 8,100  Level Memphis Center
04:25AM 35.2228 -86.7072 180° South 179 206 8,100  Level Memphis Center
04:26AM 35.1728 -86.7119 184° South 179 206 8,100  Level Memphis Center
04:27AM 35.1269 -86.7139 182° South 174 200 8,200  Climbing Memphis Center
04:28AM 35.0769 -86.7161 182° South 174 200 8,100 -60 Descending Memphis Center
04:29AM 35.0289 -86.7156 179° South 179 206 8,100  Level Memphis Center
04:30AM 34.9767 -86.7153 180° South 179 206 8,100  Level Memphis Center
04:31AM 34.9308 -86.7172 182° South 179 206 8,100  Level Memphis Center
04:32AM 34.8808 -86.7194 182° South 179 206 8,100  Level Memphis Center
04:33AM 34.8331 -86.7189 179° South 179 206 8,100  Level Memphis Center
04:34AM 34.7850 -86.7211 182° South 179 206 8,100  Level Memphis Center
04:35AM 34.7350 -86.7231 182° South 179 206 8,100  Level Memphis Center
04:36AM 34.6869 -86.7253 182° South 179 206 8,100  Level Memphis Center
04:37AM 34.6411 -86.7247 179° South 179 206 8,100  Level Memphis Center
04:38AM 34.5911 -86.7267 182° South 179 206 8,100  Level Memphis Center
04:39AM 34.5433 -86.7289 182° South 179 206 8,100  Level Memphis Center
04:40AM 34.4953 -86.7308 182° South 179 206 8,100  Level Memphis Center
04:41AM 34.4453 -86.7306 180° South 179 206 8,100  Level Memphis Center
04:42AM 34.3953 -86.7328 182° South 179 206 8,100  Level Memphis Center
04:44AM 34.2947 -86.7367 182° South 178 205 8,100  Level Atlanta Center
04:45AM 34.2469 -86.7353 179° South 177 204 8,100  Level Atlanta Center
04:46AM 34.1967 -86.7411 185° South 176 203 8,100  Level Atlanta Center
04:47AM 34.1486 -86.7397 179° South 175 201 8,100  Level Atlanta Center
04:48AM 34.1006 -86.7406 181° South 174 200 8,100 -180 Level Atlanta Center
04:49AM 34.0506 -86.7417 181° South 179 206 7,800 -300 Descending Atlanta Center
04:50AM 33.9964 -86.7422 180° South 180 207 7,500 -420 Descending Atlanta Center
04:51AM 33.9419 -86.7456 183° South 184 212 7,000 -540 Descending Atlanta Center
04:52AM 33.8919 -86.7439 178° South 181 208 6,400 -600 Descending Atlanta Center
04:53AM 33.8397 -86.7475 183° South 181 208 5,900 -600 Descending Atlanta Center
04:54AM 33.7917 -86.7483 181° South 177 204 5,200 -840 Descending Atlanta Center
04:55AM 33.7372 -86.7492 181° South 180 207 4,300 -900 Descending Atlanta Center
04:56AM 33.6872 -86.7475 178° South 178 205 3,400 -960 Descending Atlanta Center
04:57AM 33.6394 -86.7436 176° South 178 205 2,400 -840 Descending Atlanta Center
04:58AM 33.5936 -86.7397 176° South 153 176 1,700 -720 Descending Atlanta Center
05:00AM 33.5639 -86.7523 180° South  Level Estimated
05:07AM 33.5639 -86.7523 180° South  Level Estimated